Time;durP1;ratioP1;P1;durP2;ratioP2;P2;SDS_P1;SDS_P2;PMS_P1;PMS_P2;Temp;Humidity;BMP_temperature;BMP_pressure;BME280_temperature;BME280_humidity;BME280_pressure;Samples;Min_cycle;Max_cycle;Signal;HPM_P1;HPM_P2
2023/05/05 14:05:27;;;;;;;18.83;6.80;;;;;;;20.07;100.00;101654.84;5370174;27;21243;-70
2023/05/05 14:07:58;;;;;;;18.88;6.53;;;;;;;20.06;100.00;101652.34;5380454;27;20034;-73
2023/05/05 14:10:30;;;;;;;58.00;9.38;;;;;;;20.12;100.00;101647.00;5381635;27;20502;-71
2023/05/05 14:13:02;;;;;;;16.75;6.35;;;;;;;20.16;100.00;101640.22;5382534;27;20505;-75
2023/05/05 14:15:33;;;;;;;19.33;7.05;;;;;;;20.08;100.00;101634.03;5382520;27;20104;-77
2023/05/05 14:18:05;;;;;;;17.73;6.70;;;;;;;20.11;100.00;101630.94;5398070;27;20498;-75
2023/05/05 14:20:36;;;;;;;14.25;4.95;;;;;;;20.09;100.00;101639.28;5398112;27;20102;-71
2023/05/05 14:23:08;;;;;;;12.38;5.43;;;;;;;20.06;100.00;101636.09;5384063;27;20034;-72
2023/05/05 14:25:39;;;;;;;15.88;5.15;;;;;;;20.07;100.00;101643.19;5375416;27;20019;-73
2023/05/05 14:28:10;;;;;;;21.48;6.03;;;;;;;20.08;100.00;101639.47;5385425;27;20677;-78
2023/05/05 14:30:41;;;;;;;20.88;6.25;;;;;;;20.06;100.00;101636.94;5377453;27;31447;-70
2023/05/05 14:43:59;;;;;;;12.70;4.95;;;;;;;19.95;100.00;101611.16;5377491;27;20370;-69
2023/05/05 14:46:30;;;;;;;14.60;5.07;;;;;;;20.05;100.00;101612.75;5376773;27;20023;-72
2023/05/05 14:49:02;;;;;;;18.33;6.18;;;;;;;20.03;100.00;101608.34;5374335;27;20089;-70
2023/05/05 15:47:39;;;;;;;1.50;0.77;;;;;;;20.70;100.00;101556.91;5085831;27;20428;-42
2023/05/05 15:50:06;;;;;;;1.67;0.80;;;;;;;20.76;100.00;101548.00;4997087;28;20766;-43
2023/05/05 15:52:31;;;;;;;1.65;0.60;;;;;;;20.79;100.00;101544.91;4995902;28;20038;-43
2023/05/05 15:54:56;;;;;;;2.28;0.55;;;;;;;20.81;100.00;101542.84;5005095;28;20539;-41
2023/05/05 15:57:22;;;;;;;0.60;0.60;;;;;;;20.77;100.00;101542.41;4996638;28;20029;-45
2023/05/05 15:59:51;;;;;;;0.65;0.60;;;;;;;20.83;100.00;101554.34;5004491;28;20521;-43
2023/05/05 16:02:17;;;;;;;0.52;0.47;;;;;;;20.83;100.00;101550.75;5004235;28;20034;-45
2023/05/05 16:04:43;;;;;;;2.47;0.80;;;;;;;20.81;100.00;101552.84;5006936;28;20064;-42
2023/05/05 16:07:08;;;;;;;1.23;0.70;;;;;;;20.86;100.00;101547.69;5005481;28;20053;-43
2023/05/05 16:09:34;;;;;;;0.93;0.70;;;;;;;20.86;100.00;101548.53;5003352;28;20034;-42
2023/05/05 16:11:59;;;;;;;1.00;0.50;;;;;;;20.89;100.00;101541.88;5004426;28;20509;-45
2023/05/05 16:14:26;;;;;;;0.60;0.60;;;;;;;20.92;100.00;101536.91;5001268;28;20030;-43
2023/05/05 16:16:51;;;;;;;1.40;0.50;;;;;;;20.89;100.00;101540.00;5003437;28;20382;-43
2023/05/05 16:19:17;;;;;;;1.13;0.70;;;;;;;20.93;100.00;101544.03;5002563;28;20033;-44
2023/05/05 16:21:42;;;;;;;0.80;0.60;;;;;;;21.03;100.00;101538.25;5001532;28;20029;-43
2023/05/05 16:24:07;;;;;;;0.68;0.55;;;;;;;21.16;100.00;101537.53;5000582;28;20022;-44
2023/05/05 16:26:34;;;;;;;0.90;0.55;;;;;;;21.24;100.00;101537.38;5002060;28;20030;-42
2023/05/05 16:29:00;;;;;;;8.90;0.80;;;;;;;21.30;100.00;101539.31;5001800;28;20430;-48
2023/05/05 16:31:25;;;;;;;1.42;0.63;;;;;;;21.32;100.00;101542.69;5001886;28;20165;-43
2023/05/05 16:33:50;;;;;;;2.40;0.70;;;;;;;21.45;100.00;101546.53;5000514;28;20042;-45
2023/05/05 16:36:16;;;;;;;1.60;0.60;;;;;;;21.54;100.00;101542.66;5001912;28;20026;-46
2023/05/05 16:38:42;;;;;;;0.93;0.75;;;;;;;21.56;100.00;101542.44;5000162;28;20030;-45
2023/05/05 16:41:09;;;;;;;4.80;0.80;;;;;;;21.75;100.00;101546.34;5002358;28;20176;-44
2023/05/05 16:43:35;;;;;;;1.45;0.73;;;;;;;21.94;100.00;101540.19;5008454;28;20041;-44
2023/05/05 16:46:02;;;;;;;2.88;1.20;;;;;;;22.14;100.00;101540.25;5002384;28;20030;-44
2023/05/05 16:48:28;;;;;;;3.45;0.90;;;;;;;22.25;100.00;101533.44;4999326;28;20026;-46
2023/05/05 16:53:24;;;;;;;1.45;1.35;;;;;;;20.20;100.00;101535.88;5077291;28;20363;-75
2023/05/05 16:55:51;;;;;;;1.58;1.48;;;;;;;19.24;100.00;101535.72;5066525;28;20093;-76
2023/05/05 16:58:17;;;;;;;3.22;1.55;;;;;;;18.81;100.00;101529.97;5065961;28;20082;-76
2023/05/05 17:00:45;;;;;;;2.97;1.77;;;;;;;18.42;100.00;101538.13;5054181;28;20482;-77
2023/05/05 17:03:11;;;;;;;3.47;1.50;;;;;;;17.98;100.00;101534.13;5063885;28;20024;-77
2023/05/05 17:05:36;;;;;;;2.10;1.73;;;;;;;17.74;100.00;101540.41;5057494;28;20047;-76
2023/05/05 17:08:02;;;;;;;1.60;1.50;;;;;;;17.42;100.00;101544.84;5050509;28;20017;-76
2023/05/05 17:10:28;;;;;;;4.18;1.65;;;;;;;17.22;100.00;101540.84;5055440;28;20120;-76
2023/05/05 17:12:53;;;;;;;2.38;1.52;;;;;;;17.21;100.00;101548.06;5051540;28;20453;-76
2023/05/05 17:15:18;;;;;;;4.07;1.70;;;;;;;17.08;100.00;101543.19;5063024;28;20450;-76
2023/05/05 17:17:44;;;;;;;1.98;1.50;;;;;;;16.80;100.00;101546.16;5071891;28;20024;-77
2023/05/05 17:20:10;;;;;;;1.85;1.48;;;;;;;16.85;100.00;101545.72;5061055;28;20047;-77
2023/05/05 17:22:35;;;;;;;2.58;1.95;;;;;;;16.64;100.00;101536.22;5049368;28;20029;-77
2023/05/05 17:25:00;;;;;;;2.17;1.70;;;;;;;16.77;100.00;101540.25;5073370;28;20024;-77
2023/05/05 17:27:25;;;;;;;2.42;1.65;;;;;;;16.67;100.00;101536.88;5055911;28;20470;-76
2023/05/05 17:29:51;;;;;;;4.97;2.10;;;;;;;16.60;100.00;101534.88;5066868;28;20029;-77
2023/05/05 17:32:16;;;;;;;2.45;2.15;;;;;;;16.53;100.00;101543.75;5055028;28;20056;-76
2023/05/05 17:34:41;;;;;;;3.33;2.50;;;;;;;16.35;100.00;101535.78;5052730;28;20482;-77
2023/05/05 17:37:08;;;;;;;2.97;2.67;;;;;;;16.29;100.00;101534.59;5058613;28;20037;-76
2023/05/05 17:39:33;;;;;;;2.70;2.35;;;;;;;16.29;100.00;101536.47;5050847;28;20490;-76
2023/05/05 17:41:58;;;;;;;2.70;2.28;;;;;;;16.22;100.00;101541.66;5051645;28;20024;-76
2023/05/05 17:44:23;;;;;;;2.80;2.55;;;;;;;16.24;100.00;101535.09;5052527;28;20083;-76
2023/05/05 17:46:49;;;;;;;3.22;2.50;;;;;;;16.19;100.00;101531.19;5053243;28;20039;-77
2023/05/05 17:49:15;;;;;;;5.00;2.50;;;;;;;16.22;100.00;101533.56;5053607;28;20395;-76
2023/05/05 17:51:40;;;;;;;3.70;3.05;;;;;;;16.03;100.00;101526.59;5053775;28;20494;-77
2023/05/05 17:54:05;;;;;;;3.75;3.20;;;;;;;15.96;100.00;101531.78;5053013;28;20036;-75
2023/05/05 17:56:32;;;;;;;3.85;3.30;;;;;;;15.97;100.00;101521.84;5058041;28;20107;-76
2023/05/05 17:58:59;;;;;;;5.13;4.00;;;;;;;15.91;100.00;101525.19;5047828;28;20495;-76
2023/05/05 18:01:25;;;;;;;6.35;4.20;;;;;;;15.80;100.00;101520.94;5049430;28;20028;-76
2023/05/05 18:03:51;;;;;;;4.22;3.67;;;;;;;15.78;100.00;101525.66;5053000;28;20108;-76
2023/05/05 18:06:16;;;;;;;4.60;3.75;;;;;;;15.75;100.00;101528.66;5041518;28;20037;-75
2023/05/05 18:08:43;;;;;;;5.85;4.78;;;;;;;15.61;100.00;101525.50;5044517;28;20036;-75
2023/05/05 18:11:09;;;;;;;4.07;3.50;;;;;;;15.63;100.00;101531.56;5039138;28;20037;-76
2023/05/05 18:13:34;;;;;;;5.35;3.85;;;;;;;15.49;100.00;101541.06;5037053;28;20035;-75
2023/05/05 18:15:59;;;;;;;4.90;3.78;;;;;;;15.52;100.00;101539.06;5035987;28;20037;-75
2023/05/05 18:18:25;;;;;;;4.50;3.60;;;;;;;15.44;100.00;101553.28;5033275;28;20033;-72
2023/05/05 18:20:50;;;;;;;4.38;3.97;;;;;;;15.49;100.00;101553.66;5036365;28;20266;-73
2023/05/05 18:23:15;;;;;;;3.72;3.42;;;;;;;15.42;100.00;101549.91;5036320;28;20035;-73
2023/05/05 18:25:41;;;;;;;4.55;3.63;;;;;;;15.36;100.00;101550.53;5034629;28;20025;-73
2023/05/05 18:28:06;;;;;;;4.18;3.38;;;;;;;15.29;100.00;101558.41;5054644;28;20025;-73
2023/05/05 18:30:32;;;;;;;3.78;3.35;;;;;;;15.34;100.00;101555.22;5034579;28;20029;-73
2023/05/05 18:32:57;;;;;;;;;;;;;;;15.55;100.00;101560.25;5033581;28;20036;-73
2023/05/05 18:35:22;;;;;;;3.30;3.00;;;;;;;15.18;100.00;101558.63;5033130;28;20374;-72
2023/05/05 18:37:48;;;;;;;;;;;;;;;15.47;100.00;101559.19;5036655;28;20831;-73
2023/05/05 18:40:14;;;;;;;3.05;2.75;;;;;;;15.15;100.00;101558.94;5034546;28;19944;-73
2023/05/05 18:42:39;;;;;;;;;;;;;;;15.41;100.00;101565.22;5042226;28;20061;-73
2023/05/05 18:45:05;;;;;;;3.80;3.10;;;;;;;15.02;100.00;101562.84;5033625;28;19913;-73
2023/05/05 18:47:32;;;;;;;4.35;2.88;;;;;;;14.99;100.00;101568.56;5033261;28;20029;-72
2023/05/05 18:49:57;;;;;;;4.18;3.28;;;;;;;14.95;100.00;101569.84;5041863;28;20017;-73
2023/05/05 18:52:22;;;;;;;;;;;;;;;15.18;100.00;101569.38;5042340;28;20036;-73
2023/05/05 18:54:48;;;;;;;4.00;3.30;;;;;;;14.92;100.00;101583.59;5037246;28;19943;-72
2023/05/05 18:57:13;;;;;;;;;;;;;;;15.07;100.00;101571.28;5039051;28;20652;-73
2023/05/05 18:59:38;;;;;;;7.33;2.73;;;;;;;14.88;100.00;101576.81;5031955;28;20000;-73
2023/05/05 19:02:05;;;;;;;3.67;2.80;;;;;;;14.69;100.00;101572.44;5037536;28;20032;-73
2023/05/05 19:04:31;;;;;;;4.38;3.08;;;;;;;14.58;100.00;101576.19;5043097;28;20056;-73
2023/05/05 19:06:56;;;;;;;6.45;3.22;;;;;;;14.52;100.00;101580.28;5037713;28;20039;-73
2023/05/05 19:09:22;;;;;;;;;;;;;;;14.77;100.00;101587.81;5036625;28;20049;-73
2023/05/05 19:11:50;;;;;;;4.78;3.35;;;;;;;14.42;100.00;101584.03;5039796;28;19963;-73
2023/05/05 19:14:16;;;;;;;4.07;3.17;;;;;;;14.30;100.00;101586.06;5033494;28;20463;-73
2023/05/05 19:16:41;;;;;;;3.65;3.00;;;;;;;14.24;100.00;101584.81;5043207;28;20642;-73
2023/05/05 19:19:08;;;;;;;;;;;;;;;14.46;100.00;101594.31;5040528;28;20017;-73
2023/05/05 19:21:33;;;;;;;3.67;2.87;;;;;;;14.14;100.00;101584.00;5037746;28;20318;-77
2023/05/05 19:23:59;;;;;;;4.55;3.17;;;;;;;14.04;100.00;101591.25;5040469;28;20169;-77
2023/05/05 19:26:25;;;;;;;;;;;;;;;14.28;100.00;101596.09;5035606;28;20029;-77
2023/05/05 19:28:50;;;;;;;5.47;3.30;;;;;;;13.98;100.00;101598.88;5040012;28;20329;-77
2023/05/05 19:31:15;;;;;;;;;;;;;;;14.17;100.00;101607.88;5039108;28;20486;-77
2023/05/05 19:33:44;;;;;;;3.93;3.50;;;;;;;13.79;100.00;101605.13;5039922;28;19917;-77
2023/05/05 19:36:11;;;;;;;4.05;3.25;;;;;;;13.74;100.00;101603.88;5038612;28;20021;-77
2023/05/05 19:38:36;;;;;;;6.78;3.38;;;;;;;13.71;100.00;101610.41;5043179;28;20474;-77
2023/05/05 19:41:01;;;;;;;;;;;;;;;13.89;100.00;101605.13;5043192;28;20083;-77
2023/05/05 19:43:26;;;;;;;4.82;3.47;;;;;;;13.61;100.00;101610.41;5042880;28;19912;-76
2023/05/05 19:45:52;;;;;;;;;;;;;;;13.77;100.00;101614.34;5043048;28;20025;-77
2023/05/05 19:48:25;;;;;;;5.30;4.15;;;;;;;13.51;100.00;101612.25;5033642;28;20286;-76
2023/05/05 19:50:50;;;;;;;4.55;4.15;;;;;;;13.36;100.00;101609.19;5035731;28;20399;-76
2023/05/05 19:53:16;;;;;;;;;;;;;;;13.61;100.00;101615.75;5039079;28;20037;-77
2023/05/05 19:55:41;;;;;;;4.73;3.67;;;;;;;13.35;100.00;101617.34;5038678;28;19928;-76
2023/05/05 19:58:06;;;;;;;;;;;;;;;13.54;100.00;101614.66;5041748;28;20283;-77
2023/05/05 20:00:32;;;;;;;6.40;4.10;;;;;;;13.26;100.00;101610.13;5034992;28;20358;-76
2023/05/05 20:02:57;;;;;;;;;;;;;;;13.46;100.00;101621.72;5035843;28;20025;-75
2023/05/05 20:05:22;;;;;;;7.07;4.50;;;;;;;13.16;100.00;101618.16;5039200;28;19974;-76
2023/05/05 20:07:49;;;;;;;;;;;;;;;13.37;100.00;101621.56;5038850;28;20291;-75
2023/05/05 20:10:15;;;;;;;5.13;4.63;;;;;;;13.15;100.00;101620.00;5039312;28;19996;-76
2023/05/05 20:12:46;;;;;;;5.70;4.85;;;;;;;13.12;100.00;101620.28;5037924;28;20010;-76
2023/05/05 20:15:18;;;;;;;7.68;5.13;;;;;;;13.07;100.00;101625.19;5039775;28;20028;-75
2023/05/05 20:17:45;;;;;;;5.28;4.72;;;;;;;13.00;100.00;101622.22;5046200;28;20478;-77
2023/05/05 20:20:14;;;;;;;7.13;4.95;;;;;;;13.07;100.00;101621.69;5031660;28;20039;-77
2023/05/05 20:22:39;;;;;;;5.65;5.05;;;;;;;13.03;100.00;101630.00;5030205;28;20033;-77
2023/05/05 20:25:05;;;;;;;;;;;;;;;13.21;100.00;101624.78;5030051;28;20036;-76
2023/05/05 20:27:30;;;;;;;6.10;5.50;;;;;;;12.93;100.00;101618.41;5043203;28;20381;-76
2023/05/05 20:29:55;;;;;;;;;;;;;;;13.17;100.00;101622.53;5038306;28;20085;-77
2023/05/05 20:32:23;;;;;;;6.85;6.07;;;;;;;12.95;100.00;101613.75;5038804;28;20141;-77
2023/05/05 20:34:48;;;;;;;7.25;6.28;;;;;;;12.89;100.00;101617.00;5033917;28;20409;-77
2023/05/05 20:37:13;;;;;;;;;;;;;;;13.07;100.00;101617.16;5038071;28;20028;-78
2023/05/05 20:39:41;;;;;;;8.83;6.50;;;;;;;12.80;100.00;101617.84;5046551;28;20366;-75
2023/05/05 20:42:06;;;;;;;7.25;6.55;;;;;;;12.79;100.00;101616.16;5038839;28;20291;-75
2023/05/05 20:44:31;;;;;;;;;;;;;;;12.99;100.00;101617.00;5041318;28;20663;-74
2023/05/05 20:46:56;;;;;;;6.93;6.33;;;;;;;12.81;100.00;101615.00;5048646;28;20350;-74
2023/05/05 20:49:22;;;;;;;;;;;;;;;12.97;100.00;101617.19;5029815;28;20240;-74
2023/05/05 20:51:47;;;;;;;7.30;6.70;;;;;;;12.71;100.00;101613.31;5028720;28;19920;-74
2023/05/05 20:54:12;;;;;;;;;;;;;;;12.94;100.00;101620.13;5044253;28;20807;-74
2023/05/05 20:56:37;;;;;;;7.20;6.50;;;;;;;12.80;100.00;101615.19;5035769;28;20508;-75
2023/05/05 20:59:03;;;;;;;;;;;;;;;12.95;100.00;101621.81;5039739;28;20299;-75
2023/05/05 21:01:28;;;;;;;7.75;6.70;;;;;;;12.82;100.00;101618.56;5039941;28;20293;-75
2023/05/05 21:03:53;;;;;;;;;;;;;;;12.95;100.00;101621.81;5035868;28;20409;-75
2023/05/05 21:06:19;;;;;;;8.07;6.93;;;;;;;12.79;100.00;101617.00;5043621;28;20338;-75
2023/05/05 21:08:44;;;;;;;;;;;;;;;12.93;100.00;101618.41;5030808;28;20302;-75
2023/05/05 21:11:10;;;;;;;8.43;7.55;;;;;;;12.81;100.00;101612.34;5043509;28;19939;-75
2023/05/05 21:13:35;;;;;;;;;;;;;;;12.93;100.00;101620.25;5033571;28;20427;-75
2023/05/05 21:16:00;;;;;;;8.40;7.53;;;;;;;12.80;100.00;101607.97;5032034;28;20362;-74
2023/05/05 21:18:26;;;;;;;;;;;;;;;12.92;100.00;101603.34;5041544;28;20337;-74
2023/05/05 21:20:51;;;;;;;10.15;8.18;;;;;;;12.78;100.00;101609.97;5041656;28;20309;-75
2023/05/05 21:23:17;;;;;;;;;;;;;;;12.93;100.00;101612.22;5033294;28;20097;-74
2023/05/05 21:25:42;;;;;;;8.52;7.72;;;;;;;12.85;100.00;101607.56;5035180;28;19928;-75
2023/05/05 21:28:07;;;;;;;;;;;;;;;12.96;100.00;101604.75;5039165;28;20025;-75
2023/05/05 21:30:33;;;;;;;8.80;8.00;;;;;;;12.88;100.00;101609.13;5042509;28;20362;-76
2023/05/05 21:32:58;;;;;;;;;;;;;;;12.98;100.00;101613.50;5035787;28;20303;-76
2023/05/05 21:35:24;;;;;;;9.43;8.43;;;;;;;12.88;100.00;101607.28;5043338;28;19919;-76
2023/05/05 21:37:49;;;;;;;;;;;;;;;12.99;100.00;101598.25;5043351;28;20013;-75
2023/05/05 21:40:15;;;;;;;14.70;12.52;;;;;;;12.91;100.00;101603.50;5035219;28;20302;-76
2023/05/05 21:42:41;;;;;;;;;;;;;;;12.98;100.00;101594.75;5046746;28;20020;-76
2023/05/05 21:45:06;;;;;;;9.50;8.57;;;;;;;12.88;100.00;101598.41;5039299;28;20011;-76
2023/05/05 21:47:32;;;;;;;;;;;;;;;12.97;100.00;101598.44;5041930;28;20032;-76
2023/05/05 21:49:58;;;;;;;9.60;8.70;;;;;;;12.89;100.00;101598.28;5041426;28;19952;-75
2023/05/05 21:52:23;;;;;;;;;;;;;;;12.96;100.00;101604.75;5051028;28;20036;-76
2023/05/05 21:54:48;;;;;;;9.27;8.38;;;;;;;12.86;100.00;101598.53;5044356;28;19944;-74
2023/05/05 21:57:13;;;;;;;;;;;;;;;12.95;100.00;101599.53;5037730;28;20028;-76
2023/05/05 21:59:39;;;;;;;12.18;9.73;;;;;;;12.83;100.00;101599.69;5039528;28;19916;-77
2023/05/05 22:02:04;;;;;;;;;;;;;;;12.94;100.00;101604.06;5037805;28;20079;-77
2023/05/05 22:04:29;;;;;;;10.68;9.05;;;;;;;12.87;100.00;101600.25;5039449;28;20034;-76
2023/05/05 22:06:55;;;;;;;;;;;;;;;12.95;100.00;101597.69;5038719;28;20108;-77
2023/05/05 22:09:20;;;;;;;14.38;9.95;;;;;;;12.88;100.00;101604.59;5038261;28;19921;-76
2023/05/05 22:11:45;;;;;;;;;;;;;;;12.96;100.00;101593.22;5033549;28;20550;-76
2023/05/05 22:14:11;;;;;;;9.70;8.70;;;;;;;12.76;100.00;101590.53;5039064;28;19936;-76
2023/05/05 22:16:36;;;;;;;;;;;;;;;12.92;100.00;101598.00;5041715;28;20686;-76
2023/05/05 22:19:01;;;;;;;11.25;10.25;;;;;;;12.77;100.00;101589.50;5039634;28;19916;-76
2023/05/05 22:21:26;;;;;;;;;;;;;;;12.91;100.00;101590.94;5046421;28;20029;-76
2023/05/05 22:23:51;;;;;;;9.20;8.30;;;;;;;12.81;100.00;101587.41;5048397;28;20381;-76
2023/05/05 22:26:17;;;;;;;;;;;;;;;12.90;100.00;101583.03;5031419;28;20055;-76
2023/05/05 22:28:42;;;;;;;9.77;8.60;;;;;;;12.77;100.00;101594.88;5038068;28;19944;-76
2023/05/05 22:31:07;;;;;;;;;;;;;;;12.89;100.00;101584.88;5039186;28;20323;-75
2023/05/05 22:33:32;;;;;;;9.73;8.73;;;;;;;12.66;100.00;101581.63;5046933;28;19920;-76
2023/05/05 22:35:58;;;;;;;;;;;;;;;12.86;100.00;101585.16;5037722;28;20048;-76
2023/05/05 22:38:23;;;;;;;9.53;8.33;;;;;;;12.63;100.00;101574.69;5043677;28;19917;-75
2023/05/05 22:40:48;;;;;;;;;;;;;;;12.80;100.00;101585.72;5049131;28;20283;-75
2023/05/05 22:43:13;;;;;;;10.60;9.50;;;;;;;12.65;100.00;101575.41;5038622;28;20007;-76
2023/05/05 22:45:38;;;;;;;;;;;;;;;12.78;100.00;101574.28;5040464;28;21692;-75
2023/05/05 22:48:04;;;;;;;10.20;9.20;;;;;;;12.59;100.00;101578.63;5037803;28;20006;-75
2023/05/05 22:50:29;;;;;;;;;;;;;;;12.76;100.00;101581.63;5041210;28;20302;-75
2023/05/05 22:52:55;;;;;;;10.53;9.43;;;;;;;12.61;100.00;101582.03;5037254;28;20338;-75
2023/05/05 22:55:20;;;;;;;;;;;;;;;12.75;100.00;101577.25;5049043;28;20329;-75
2023/05/05 22:57:46;;;;;;;9.93;8.93;;;;;;;12.56;100.00;101578.06;5041457;28;20275;-75
2023/05/05 23:00:11;;;;;;;;;;;;;;;12.74;100.00;101591.63;5035444;28;20311;-75
2023/05/05 23:02:37;;;;;;;10.43;9.35;;;;;;;12.48;100.00;101576.94;5042560;28;19912;-74
2023/05/05 23:05:03;;;;;;;12.77;11.57;;;;;;;12.61;100.00;101574.00;5034198;28;20040;-75
2023/05/05 23:07:28;;;;;;;;;;;;;;;12.69;100.00;101575.97;5042013;28;20041;-75
2023/05/05 23:09:53;;;;;;;11.63;10.55;;;;;;;12.56;100.00;101578.06;5040991;28;19957;-75
2023/05/05 23:12:18;;;;;;;;;;;;;;;12.67;100.00;101577.94;5044672;28;20037;-75
2023/05/05 23:14:44;;;;;;;12.80;11.10;;;;;;;12.46;100.00;101576.22;5034357;28;19913;-75
2023/05/05 23:17:09;;;;;;;;;;;;;;;12.65;100.00;101585.28;5034917;28;20353;-76
2023/05/05 23:19:35;;;;;;;14.00;11.38;;;;;;;12.49;100.00;101580.44;5041820;28;20382;-75
2023/05/05 23:22:01;;;;;;;;;;;;;;;12.65;100.00;101579.91;5034486;28;20029;-75
2023/05/05 23:24:27;;;;;;;15.13;11.50;;;;;;;12.41;100.00;101581.13;5043525;28;19969;-75
2023/05/05 23:26:52;;;;;;;12.70;11.40;;;;;;;12.42;100.00;101587.31;5042045;28;20075;-75
2023/05/05 23:29:18;;;;;;;;;;;;;;;12.60;100.00;101590.19;5035916;28;20439;-76
2023/05/05 23:31:44;;;;;;;13.38;12.02;;;;;;;12.43;100.00;101583.66;5037318;28;19921;-75
2023/05/05 23:34:09;;;;;;;20.20;18.13;;;;;;;12.37;100.00;101582.38;5030687;28;20036;-75
2023/05/05 23:36:35;;;;;;;;;;;;;;;12.56;100.00;101583.44;5038220;28;20051;-75
2023/05/05 23:39:00;;;;;;;18.77;14.20;;;;;;;12.41;100.00;101581.13;5033983;28;19928;-75
2023/05/05 23:41:25;;;;;;;;;;;;;;;12.53;100.00;101583.69;5042074;28;20059;-75
2023/05/05 23:43:50;;;;;;;19.17;17.23;;;;;;;12.38;100.00;101577.91;5041945;28;20419;-76
2023/05/05 23:46:16;;;;;;;18.83;16.90;;;;;;;12.34;100.00;101584.47;5050125;28;20295;-75
2023/05/05 23:48:41;;;;;;;;;;;;;;;12.48;100.00;101573.38;5034540;28;20050;-75
2023/05/05 23:51:06;;;;;;;19.93;17.13;;;;;;;12.32;100.00;101575.75;5041035;28;19912;-75
2023/05/05 23:53:31;;;;;;;;;;;;;;;12.43;100.00;101576.50;5035923;28;20322;-75
2023/05/05 23:55:57;;;;;;;17.70;15.93;;;;;;;12.25;100.00;101572.75;5034475;28;19913;-76
2023/05/05 23:58:22;;;;;;;;;;;;;;;12.40;100.00;101570.56;5041972;28;20024;-76
